sensor_id;sensor_type;location;lat;lon;timestamp;temperature;humidity
18948;DHT22;9607;51.600;7.558;2022-08-03T00:00:29;18.30;99.90
18948;DHT22;9607;51.600;7.558;2022-08-03T00:02:56;18.30;99.90
18948;DHT22;9607;51.600;7.558;2022-08-03T00:05:23;18.30;99.90
18948;DHT22;9607;51.600;7.558;2022-08-03T00:07:51;18.30;99.90
18948;DHT22;9607;51.600;7.558;2022-08-03T00:10:18;18.20;99.90
18948;DHT22;9607;51.600;7.558;2022-08-03T00:12:45;18.20;99.90
18948;DHT22;9607;51.600;7.558;2022-08-03T00:15:12;18.20;99.90
18948;DHT22;9607;51.600;7.558;2022-08-03T00:17:38;18.10;99.90
18948;DHT22;9607;51.600;7.558;2022-08-03T00:20:06;18.10;99.90
18948;DHT22;9607;51.600;7.558;2022-08-03T00:22:33;18.10;99.90
18948;DHT22;9607;51.600;7.558;2022-08-03T00:25:02;18.10;99.90
18948;DHT22;9607;51.600;7.558;2022-08-03T00:27:29;18.00;99.90
18948;DHT22;9607;51.600;7.558;2022-08-03T00:29:55;18.00;99.90
18948;DHT22;9607;51.600;7.558;2022-08-03T00:32:22;18.00;99.90
18948;DHT22;9607;51.600;7.558;2022-08-03T00:34:49;18.00;99.90
18948;DHT22;9607;51.600;7.558;2022-08-03T00:37:19;18.00;99.90
18948;DHT22;9607;51.600;7.558;2022-08-03T00:39:46;17.90;99.90
18948;DHT22;9607;51.600;7.558;2022-08-03T00:42:14;17.90;99.90
18948;DHT22;9607;51.600;7.558;2022-08-03T00:44:42;17.90;99.90
18948;DHT22;9607;51.600;7.558;2022-08-03T00:47:10;17.90;99.90
18948;DHT22;9607;51.600;7.558;2022-08-03T00:49:37;17.90;99.90
18948;DHT22;9607;51.600;7.558;2022-08-03T00:52:05;17.90;99.90
18948;DHT22;9607;51.600;7.558;2022-08-03T00:54:35;17.90;99.90
18948;DHT22;9607;51.600;7.558;2022-08-03T00:57:03;17.90;99.90
18948;DHT22;9607;51.600;7.558;2022-08-03T00:59:31;17.80;99.90
18948;DHT22;9607;51.600;7.558;2022-08-03T01:01:59;17.90;99.90
18948;DHT22;9607;51.600;7.558;2022-08-03T01:04:26;17.90;99.90
18948;DHT22;9607;51.600;7.558;2022-08-03T01:06:58;17.80;99.90
18948;DHT22;9607;51.600;7.558;2022-08-03T01:09:34;17.80;99.90
18948;DHT22;9607;51.600;7.558;2022-08-03T01:12:07;17.70;99.90
18948;DHT22;9607;51.600;7.558;2022-08-03T01:14:38;17.70;99.90
18948;DHT22;9607;51.600;7.558;2022-08-03T01:17:12;17.70;99.90
18948;DHT22;9607;51.600;7.558;2022-08-03T01:19:48;17.70;99.90
18948;DHT22;9607;51.600;7.558;2022-08-03T01:22:36;17.60;99.90
18948;DHT22;9607;51.600;7.558;2022-08-03T01:25:09;17.60;99.90
18948;DHT22;9607;51.600;7.558;2022-08-03T01:27:56;17.60;99.90
18948;DHT22;9607;51.600;7.558;2022-08-03T01:30:31;17.50;99.90
18948;DHT22;9607;51.600;7.558;2022-08-03T01:33:02;17.50;99.90
18948;DHT22;9607;51.600;7.558;2022-08-03T01:35:33;17.50;99.90
18948;DHT22;9607;51.600;7.558;2022-08-03T01:38:03;17.50;99.90
18948;DHT22;9607;51.600;7.558;2022-08-03T01:40:31;17.40;99.90
18948;DHT22;9607;51.600;7.558;2022-08-03T01:43:01;17.50;99.90
18948;DHT22;9607;51.600;7.558;2022-08-03T01:45:30;17.40;99.90
18948;DHT22;9607;51.600;7.558;2022-08-03T01:47:58;17.40;99.90
18948;DHT22;9607;51.600;7.558;2022-08-03T01:50:28;17.40;99.90
18948;DHT22;9607;51.600;7.558;2022-08-03T01:52:57;17.40;99.90
18948;DHT22;9607;51.600;7.558;2022-08-03T01:55:25;17.40;99.90
18948;DHT22;9607;51.600;7.558;2022-08-03T01:57:54;17.40;99.90
18948;DHT22;9607;51.600;7.558;2022-08-03T02:00:23;17.30;99.90
18948;DHT22;9607;51.600;7.558;2022-08-03T02:02:53;17.30;99.90
18948;DHT22;9607;51.600;7.558;2022-08-03T02:05:22;17.30;99.90
18948;DHT22;9607;51.600;7.558;2022-08-03T02:07:49;17.40;99.90
18948;DHT22;9607;51.600;7.558;2022-08-03T02:10:19;17.30;99.90
18948;DHT22;9607;51.600;7.558;2022-08-03T02:12:47;17.30;99.90
18948;DHT22;9607;51.600;7.558;2022-08-03T02:15:16;17.30;99.90
18948;DHT22;9607;51.600;7.558;2022-08-03T02:17:46;17.30;99.90
18948;DHT22;9607;51.600;7.558;2022-08-03T02:20:15;17.30;99.90
18948;DHT22;9607;51.600;7.558;2022-08-03T02:22:44;17.20;99.90
18948;DHT22;9607;51.600;7.558;2022-08-03T02:25:13;17.20;99.90
18948;DHT22;9607;51.600;7.558;2022-08-03T02:27:45;17.20;99.90
18948;DHT22;9607;51.600;7.558;2022-08-03T02:30:15;17.20;99.90
18948;DHT22;9607;51.600;7.558;2022-08-03T02:32:47;17.10;99.90
18948;DHT22;9607;51.600;7.558;2022-08-03T02:35:20;17.10;99.90
18948;DHT22;9607;51.600;7.558;2022-08-03T02:37:57;17.10;99.90
18948;DHT22;9607;51.600;7.558;2022-08-03T02:40:27;17.10;99.90
18948;DHT22;9607;51.600;7.558;2022-08-03T02:42:57;17.10;99.90
18948;DHT22;9607;51.600;7.558;2022-08-03T02:45:26;17.10;99.90
18948;DHT22;9607;51.600;7.558;2022-08-03T02:47:57;17.10;99.90
18948;DHT22;9607;51.600;7.558;2022-08-03T02:50:27;17.00;99.90
18948;DHT22;9607;51.600;7.558;2022-08-03T02:52:56;17.00;99.90
18948;DHT22;9607;51.600;7.558;2022-08-03T02:55:25;17.00;99.90
18948;DHT22;9607;51.600;7.558;2022-08-03T02:57:53;17.00;99.90
18948;DHT22;9607;51.600;7.558;2022-08-03T03:00:22;17.00;99.90
18948;DHT22;9607;51.600;7.558;2022-08-03T03:02:50;16.90;99.90
18948;DHT22;9607;51.600;7.558;2022-08-03T03:05:17;16.90;99.90
18948;DHT22;9607;51.600;7.558;2022-08-03T03:07:46;16.90;99.90
18948;DHT22;9607;51.600;7.558;2022-08-03T03:10:13;16.90;99.90
18948;DHT22;9607;51.600;7.558;2022-08-03T03:12:41;16.90;99.90
18948;DHT22;9607;51.600;7.558;2022-08-03T03:15:09;16.90;99.90
18948;DHT22;9607;51.600;7.558;2022-08-03T03:17:38;16.80;99.90
18948;DHT22;9607;51.600;7.558;2022-08-03T03:20:07;16.80;99.90
18948;DHT22;9607;51.600;7.558;2022-08-03T03:22:35;16.80;99.90
18948;DHT22;9607;51.600;7.558;2022-08-03T03:25:06;16.80;99.90
18948;DHT22;9607;51.600;7.558;2022-08-03T03:27:33;16.80;99.90
18948;DHT22;9607;51.600;7.558;2022-08-03T03:30:01;16.80;99.90
18948;DHT22;9607;51.600;7.558;2022-08-03T03:32:28;16.80;99.90
18948;DHT22;9607;51.600;7.558;2022-08-03T03:34:55;16.70;99.90
18948;DHT22;9607;51.600;7.558;2022-08-03T03:37:23;16.70;99.90
18948;DHT22;9607;51.600;7.558;2022-08-03T03:39:52;16.70;99.90
18948;DHT22;9607;51.600;7.558;2022-08-03T03:42:21;16.70;99.90
18948;DHT22;9607;51.600;7.558;2022-08-03T03:44:48;16.70;99.90
18948;DHT22;9607;51.600;7.558;2022-08-03T03:47:15;16.70;99.90
18948;DHT22;9607;51.600;7.558;2022-08-03T03:49:43;16.70;99.90
18948;DHT22;9607;51.600;7.558;2022-08-03T03:52:10;16.70;99.90
18948;DHT22;9607;51.600;7.558;2022-08-03T03:54:40;16.70;99.90
18948;DHT22;9607;51.600;7.558;2022-08-03T03:57:08;16.60;99.90
18948;DHT22;9607;51.600;7.558;2022-08-03T03:59:38;16.70;99.90
18948;DHT22;9607;51.600;7.558;2022-08-03T04:02:06;16.70;99.90
18948;DHT22;9607;51.600;7.558;2022-08-03T04:04:35;16.70;99.90
18948;DHT22;9607;51.600;7.558;2022-08-03T04:07:20;16.70;99.90
18948;DHT22;9607;51.600;7.558;2022-08-03T04:10:12;16.70;99.90
18948;DHT22;9607;51.600;7.558;2022-08-03T04:12:59;16.70;99.90
18948;DHT22;9607;51.600;7.558;2022-08-03T04:15:30;16.70;99.90
18948;DHT22;9607;51.600;7.558;2022-08-03T04:17:59;16.70;99.90
18948;DHT22;9607;51.600;7.558;2022-08-03T04:20:30;16.80;99.90
18948;DHT22;9607;51.600;7.558;2022-08-03T04:22:59;16.80;99.90
18948;DHT22;9607;51.600;7.558;2022-08-03T04:25:30;16.80;99.90
18948;DHT22;9607;51.600;7.558;2022-08-03T04:28:00;16.80;99.90
18948;DHT22;9607;51.600;7.558;2022-08-03T04:30:29;16.90;99.90
18948;DHT22;9607;51.600;7.558;2022-08-03T04:32:57;16.90;99.90
18948;DHT22;9607;51.600;7.558;2022-08-03T04:35:25;16.90;99.90
18948;DHT22;9607;51.600;7.558;2022-08-03T04:37:54;16.90;99.90
18948;DHT22;9607;51.600;7.558;2022-08-03T04:40:26;17.00;99.90
18948;DHT22;9607;51.600;7.558;2022-08-03T04:42:54;17.00;99.90
18948;DHT22;9607;51.600;7.558;2022-08-03T04:45:22;17.10;99.90
18948;DHT22;9607;51.600;7.558;2022-08-03T04:47:51;17.20;99.90
18948;DHT22;9607;51.600;7.558;2022-08-03T04:50:19;17.20;99.90
18948;DHT22;9607;51.600;7.558;2022-08-03T04:52:46;17.30;99.90
18948;DHT22;9607;51.600;7.558;2022-08-03T04:55:24;17.30;99.90
18948;DHT22;9607;51.600;7.558;2022-08-03T04:57:51;17.40;99.90
18948;DHT22;9607;51.600;7.558;2022-08-03T05:00:19;17.40;99.90
18948;DHT22;9607;51.600;7.558;2022-08-03T05:02:46;17.50;99.90
18948;DHT22;9607;51.600;7.558;2022-08-03T05:05:14;17.50;99.90
18948;DHT22;9607;51.600;7.558;2022-08-03T05:07:42;17.60;99.90
18948;DHT22;9607;51.600;7.558;2022-08-03T05:10:10;17.70;99.90
18948;DHT22;9607;51.600;7.558;2022-08-03T05:12:38;17.70;99.90
18948;DHT22;9607;51.600;7.558;2022-08-03T05:15:06;17.80;99.90
18948;DHT22;9607;51.600;7.558;2022-08-03T05:17:33;17.90;99.90
18948;DHT22;9607;51.600;7.558;2022-08-03T05:20:00;17.90;99.90
18948;DHT22;9607;51.600;7.558;2022-08-03T05:22:29;18.00;99.90
18948;DHT22;9607;51.600;7.558;2022-08-03T05:24:56;18.10;99.90
18948;DHT22;9607;51.600;7.558;2022-08-03T05:27:23;18.20;99.90
18948;DHT22;9607;51.600;7.558;2022-08-03T05:29:51;18.30;99.90
18948;DHT22;9607;51.600;7.558;2022-08-03T05:32:18;18.40;99.90
18948;DHT22;9607;51.600;7.558;2022-08-03T05:34:44;18.50;99.90
18948;DHT22;9607;51.600;7.558;2022-08-03T05:37:11;18.50;99.90
18948;DHT22;9607;51.600;7.558;2022-08-03T05:39:40;18.70;99.90
18948;DHT22;9607;51.600;7.558;2022-08-03T05:42:06;18.70;99.90
18948;DHT22;9607;51.600;7.558;2022-08-03T05:44:35;18.90;99.90
18948;DHT22;9607;51.600;7.558;2022-08-03T05:47:03;18.90;99.90
18948;DHT22;9607;51.600;7.558;2022-08-03T05:49:30;19.10;99.90
18948;DHT22;9607;51.600;7.558;2022-08-03T05:51:57;19.20;99.90
18948;DHT22;9607;51.600;7.558;2022-08-03T05:54:24;19.30;99.90
18948;DHT22;9607;51.600;7.558;2022-08-03T05:56:52;19.50;99.90
18948;DHT22;9607;51.600;7.558;2022-08-03T05:59:19;19.60;99.90
18948;DHT22;9607;51.600;7.558;2022-08-03T06:01:46;19.80;99.90
18948;DHT22;9607;51.600;7.558;2022-08-03T06:04:13;19.90;99.90
18948;DHT22;9607;51.600;7.558;2022-08-03T06:06:40;20.00;99.90
18948;DHT22;9607;51.600;7.558;2022-08-03T06:09:07;20.10;99.90
18948;DHT22;9607;51.600;7.558;2022-08-03T06:11:35;20.20;99.90
18948;DHT22;9607;51.600;7.558;2022-08-03T06:14:03;20.40;99.90
18948;DHT22;9607;51.600;7.558;2022-08-03T06:16:30;20.50;99.90
18948;DHT22;9607;51.600;7.558;2022-08-03T06:18:58;20.60;99.90
18948;DHT22;9607;51.600;7.558;2022-08-03T06:21:25;20.70;99.90
18948;DHT22;9607;51.600;7.558;2022-08-03T06:23:51;20.80;99.90
18948;DHT22;9607;51.600;7.558;2022-08-03T06:26:18;20.90;99.90
18948;DHT22;9607;51.600;7.558;2022-08-03T06:28:45;21.00;99.90
18948;DHT22;9607;51.600;7.558;2022-08-03T06:31:15;21.10;99.90
18948;DHT22;9607;51.600;7.558;2022-08-03T06:33:42;21.20;99.90
18948;DHT22;9607;51.600;7.558;2022-08-03T06:36:09;21.30;99.90
18948;DHT22;9607;51.600;7.558;2022-08-03T06:38:36;21.40;99.90
18948;DHT22;9607;51.600;7.558;2022-08-03T06:41:02;21.50;99.90
18948;DHT22;9607;51.600;7.558;2022-08-03T06:43:29;21.60;99.90
18948;DHT22;9607;51.600;7.558;2022-08-03T06:46:00;21.70;99.90
18948;DHT22;9607;51.600;7.558;2022-08-03T06:48:29;21.90;99.90
18948;DHT22;9607;51.600;7.558;2022-08-03T06:50:55;22.00;99.90
18948;DHT22;9607;51.600;7.558;2022-08-03T06:53:22;22.20;99.90
18948;DHT22;9607;51.600;7.558;2022-08-03T06:55:49;22.30;99.90
18948;DHT22;9607;51.600;7.558;2022-08-03T06:58:16;22.40;99.90
18948;DHT22;9607;51.600;7.558;2022-08-03T07:00:43;22.60;99.90
18948;DHT22;9607;51.600;7.558;2022-08-03T07:03:10;22.70;99.90
18948;DHT22;9607;51.600;7.558;2022-08-03T07:05:38;22.80;99.90
18948;DHT22;9607;51.600;7.558;2022-08-03T07:08:05;22.90;99.90
18948;DHT22;9607;51.600;7.558;2022-08-03T07:10:32;23.10;99.90
18948;DHT22;9607;51.600;7.558;2022-08-03T07:12:59;23.20;99.90
18948;DHT22;9607;51.600;7.558;2022-08-03T07:15:26;23.30;99.90
18948;DHT22;9607;51.600;7.558;2022-08-03T07:17:53;23.50;99.90
18948;DHT22;9607;51.600;7.558;2022-08-03T07:20:20;23.70;99.90
18948;DHT22;9607;51.600;7.558;2022-08-03T07:22:48;23.80;99.90
18948;DHT22;9607;51.600;7.558;2022-08-03T07:25:15;23.90;99.90
18948;DHT22;9607;51.600;7.558;2022-08-03T07:27:42;24.10;99.90
18948;DHT22;9607;51.600;7.558;2022-08-03T07:30:10;24.20;99.90
18948;DHT22;9607;51.600;7.558;2022-08-03T07:32:37;24.40;99.90
18948;DHT22;9607;51.600;7.558;2022-08-03T07:35:05;24.50;99.90
18948;DHT22;9607;51.600;7.558;2022-08-03T07:37:32;24.70;99.90
18948;DHT22;9607;51.600;7.558;2022-08-03T07:40:01;24.80;99.90
18948;DHT22;9607;51.600;7.558;2022-08-03T07:42:28;24.90;99.90
18948;DHT22;9607;51.600;7.558;2022-08-03T07:44:56;25.10;99.90
18948;DHT22;9607;51.600;7.558;2022-08-03T07:47:24;25.20;99.90
18948;DHT22;9607;51.600;7.558;2022-08-03T07:49:54;25.20;99.90
18948;DHT22;9607;51.600;7.558;2022-08-03T07:52:21;25.40;99.90
18948;DHT22;9607;51.600;7.558;2022-08-03T07:55:08;25.50;99.90
18948;DHT22;9607;51.600;7.558;2022-08-03T07:57:35;25.70;99.90
18948;DHT22;9607;51.600;7.558;2022-08-03T08:00:02;25.80;98.80
18948;DHT22;9607;51.600;7.558;2022-08-03T08:02:29;25.90;99.10
18948;DHT22;9607;51.600;7.558;2022-08-03T08:04:56;26.00;98.40
18948;DHT22;9607;51.600;7.558;2022-08-03T08:07:23;26.10;97.80
18948;DHT22;9607;51.600;7.558;2022-08-03T08:09:50;26.20;97.20
18948;DHT22;9607;51.600;7.558;2022-08-03T08:12:19;26.30;96.50
18948;DHT22;9607;51.600;7.558;2022-08-03T08:14:45;26.40;96.80
18948;DHT22;9607;51.600;7.558;2022-08-03T08:17:13;26.60;96.70
18948;DHT22;9607;51.600;7.558;2022-08-03T08:19:39;26.70;96.60
18948;DHT22;9607;51.600;7.558;2022-08-03T08:22:07;26.90;94.80
18948;DHT22;9607;51.600;7.558;2022-08-03T08:24:34;27.00;93.60
18948;DHT22;9607;51.600;7.558;2022-08-03T08:27:00;27.10;92.10
18948;DHT22;9607;51.600;7.558;2022-08-03T08:29:29;27.10;91.30
18948;DHT22;9607;51.600;7.558;2022-08-03T08:31:56;27.20;90.90
18948;DHT22;9607;51.600;7.558;2022-08-03T08:34:23;27.20;90.20
18948;DHT22;9607;51.600;7.558;2022-08-03T08:36:50;27.30;90.60
18948;DHT22;9607;51.600;7.558;2022-08-03T08:39:17;27.40;90.30
18948;DHT22;9607;51.600;7.558;2022-08-03T08:41:44;27.40;88.40
18948;DHT22;9607;51.600;7.558;2022-08-03T08:44:11;27.50;89.50
18948;DHT22;9607;51.600;7.558;2022-08-03T08:46:39;27.60;90.30
18948;DHT22;9607;51.600;7.558;2022-08-03T08:49:08;27.70;87.90
18948;DHT22;9607;51.600;7.558;2022-08-03T08:51:39;27.70;86.80
18948;DHT22;9607;51.600;7.558;2022-08-03T08:54:07;27.80;87.10
18948;DHT22;9607;51.600;7.558;2022-08-03T08:56:35;27.90;85.90
18948;DHT22;9607;51.600;7.558;2022-08-03T08:59:03;28.00;85.10
18948;DHT22;9607;51.600;7.558;2022-08-03T09:01:33;28.10;81.90
18948;DHT22;9607;51.600;7.558;2022-08-03T09:04:05;28.10;80.00
18948;DHT22;9607;51.600;7.558;2022-08-03T09:06:32;28.20;80.40
18948;DHT22;9607;51.600;7.558;2022-08-03T09:08:59;28.30;80.20
18948;DHT22;9607;51.600;7.558;2022-08-03T09:11:26;28.30;78.60
18948;DHT22;9607;51.600;7.558;2022-08-03T09:13:52;28.40;78.20
18948;DHT22;9607;51.600;7.558;2022-08-03T09:16:21;28.50;77.30
18948;DHT22;9607;51.600;7.558;2022-08-03T09:18:49;28.60;77.80
18948;DHT22;9607;51.600;7.558;2022-08-03T09:21:20;28.70;77.70
18948;DHT22;9607;51.600;7.558;2022-08-03T09:23:49;28.70;75.20
18948;DHT22;9607;51.600;7.558;2022-08-03T09:26:20;28.80;76.00
18948;DHT22;9607;51.600;7.558;2022-08-03T09:28:54;28.90;74.70
18948;DHT22;9607;51.600;7.558;2022-08-03T09:31:29;29.00;73.00
18948;DHT22;9607;51.600;7.558;2022-08-03T09:33:57;29.00;72.20
18948;DHT22;9607;51.600;7.558;2022-08-03T09:36:41;29.10;70.90
18948;DHT22;9607;51.600;7.558;2022-08-03T09:39:10;29.20;70.30
18948;DHT22;9607;51.600;7.558;2022-08-03T09:41:39;29.10;68.60
18948;DHT22;9607;51.600;7.558;2022-08-03T09:44:06;29.10;68.70
18948;DHT22;9607;51.600;7.558;2022-08-03T09:46:48;29.10;69.10
18948;DHT22;9607;51.600;7.558;2022-08-03T09:49:16;29.20;70.70
18948;DHT22;9607;51.600;7.558;2022-08-03T09:51:44;29.20;69.40
18948;DHT22;9607;51.600;7.558;2022-08-03T09:54:11;29.30;69.30
18948;DHT22;9607;51.600;7.558;2022-08-03T09:56:40;29.40;68.90
18948;DHT22;9607;51.600;7.558;2022-08-03T09:59:07;29.40;67.00
18948;DHT22;9607;51.600;7.558;2022-08-03T10:01:35;29.40;66.90
18948;DHT22;9607;51.600;7.558;2022-08-03T10:04:04;29.40;66.60
18948;DHT22;9607;51.600;7.558;2022-08-03T10:06:31;29.50;65.50
18948;DHT22;9607;51.600;7.558;2022-08-03T10:09:07;29.60;66.10
18948;DHT22;9607;51.600;7.558;2022-08-03T10:11:34;29.70;66.40
18948;DHT22;9607;51.600;7.558;2022-08-03T10:14:03;29.80;65.20
18948;DHT22;9607;51.600;7.558;2022-08-03T10:16:33;29.90;64.70
18948;DHT22;9607;51.600;7.558;2022-08-03T10:19:03;29.90;65.00
18948;DHT22;9607;51.600;7.558;2022-08-03T10:21:32;30.00;64.40
18948;DHT22;9607;51.600;7.558;2022-08-03T10:24:02;30.10;62.80
18948;DHT22;9607;51.600;7.558;2022-08-03T10:26:33;30.10;62.50
18948;DHT22;9607;51.600;7.558;2022-08-03T10:29:03;30.10;61.40
18948;DHT22;9607;51.600;7.558;2022-08-03T10:31:38;30.10;63.90
18948;DHT22;9607;51.600;7.558;2022-08-03T10:34:13;30.10;63.30
18948;DHT22;9607;51.600;7.558;2022-08-03T10:36:41;30.00;62.30
18948;DHT22;9607;51.600;7.558;2022-08-03T10:39:09;30.00;62.70
18948;DHT22;9607;51.600;7.558;2022-08-03T10:41:40;30.10;60.80
18948;DHT22;9607;51.600;7.558;2022-08-03T10:44:10;30.00;60.70
18948;DHT22;9607;51.600;7.558;2022-08-03T10:46:40;30.10;61.80
18948;DHT22;9607;51.600;7.558;2022-08-03T10:49:12;30.10;63.20
18948;DHT22;9607;51.600;7.558;2022-08-03T10:51:40;30.20;64.10
18948;DHT22;9607;51.600;7.558;2022-08-03T10:54:40;30.30;63.80
18948;DHT22;9607;51.600;7.558;2022-08-03T10:57:45;30.30;59.30
18948;DHT22;9607;51.600;7.558;2022-08-03T11:00:13;30.30;60.50
18948;DHT22;9607;51.600;7.558;2022-08-03T11:03:09;30.30;59.20
18948;DHT22;9607;51.600;7.558;2022-08-03T11:05:38;30.20;60.00
18948;DHT22;9607;51.600;7.558;2022-08-03T11:08:23;30.30;59.50
18948;DHT22;9607;51.600;7.558;2022-08-03T11:10:52;30.40;59.00
18948;DHT22;9607;51.600;7.558;2022-08-03T11:13:22;30.50;59.20
18948;DHT22;9607;51.600;7.558;2022-08-03T11:15:52;30.50;58.30
18948;DHT22;9607;51.600;7.558;2022-08-03T11:18:19;30.70;58.80
18948;DHT22;9607;51.600;7.558;2022-08-03T11:20:48;30.70;56.10
18948;DHT22;9607;51.600;7.558;2022-08-03T11:23:17;30.70;56.80
18948;DHT22;9607;51.600;7.558;2022-08-03T11:26:07;30.70;56.60
18948;DHT22;9607;51.600;7.558;2022-08-03T11:28:35;30.70;57.00
18948;DHT22;9607;51.600;7.558;2022-08-03T11:34:23;30.80;56.80
18948;DHT22;9607;51.600;7.558;2022-08-03T11:37:18;30.80;56.50
18948;DHT22;9607;51.600;7.558;2022-08-03T11:39:52;30.80;56.10
18948;DHT22;9607;51.600;7.558;2022-08-03T11:42:40;30.80;56.30
18948;DHT22;9607;51.600;7.558;2022-08-03T11:45:11;30.80;57.10
18948;DHT22;9607;51.600;7.558;2022-08-03T11:47:40;30.90;58.10
18948;DHT22;9607;51.600;7.558;2022-08-03T11:50:09;31.10;56.60
18948;DHT22;9607;51.600;7.558;2022-08-03T11:52:40;31.10;56.70
18948;DHT22;9607;51.600;7.558;2022-08-03T11:55:13;31.20;56.80
18948;DHT22;9607;51.600;7.558;2022-08-03T11:57:41;31.20;56.30
18948;DHT22;9607;51.600;7.558;2022-08-03T12:00:20;31.30;55.90
18948;DHT22;9607;51.600;7.558;2022-08-03T12:02:58;31.40;56.30
18948;DHT22;9607;51.600;7.558;2022-08-03T12:05:47;31.40;54.80
18948;DHT22;9607;51.600;7.558;2022-08-03T12:08:16;31.30;54.10
18948;DHT22;9607;51.600;7.558;2022-08-03T12:10:48;31.30;54.20
18948;DHT22;9607;51.600;7.558;2022-08-03T12:13:16;31.30;54.90
18948;DHT22;9607;51.600;7.558;2022-08-03T12:15:50;31.30;54.60
18948;DHT22;9607;51.600;7.558;2022-08-03T12:18:17;31.40;55.60
18948;DHT22;9607;51.600;7.558;2022-08-03T12:20:46;31.70;55.10
18948;DHT22;9607;51.600;7.558;2022-08-03T12:23:13;32.10;54.30
18948;DHT22;9607;51.600;7.558;2022-08-03T12:25:41;32.50;54.40
18948;DHT22;9607;51.600;7.558;2022-08-03T12:28:14;32.90;53.40
18948;DHT22;9607;51.600;7.558;2022-08-03T12:30:51;33.40;51.70
18948;DHT22;9607;51.600;7.558;2022-08-03T12:33:24;33.90;50.50
18948;DHT22;9607;51.600;7.558;2022-08-03T12:36:03;34.70;49.40
18948;DHT22;9607;51.600;7.558;2022-08-03T12:38:31;36.00;47.30
18948;DHT22;9607;51.600;7.558;2022-08-03T12:40:59;36.80;45.40
18948;DHT22;9607;51.600;7.558;2022-08-03T12:43:26;37.00;45.60
18948;DHT22;9607;51.600;7.558;2022-08-03T12:46:08;37.00;45.20
18948;DHT22;9607;51.600;7.558;2022-08-03T12:48:35;36.70;44.40
18948;DHT22;9607;51.600;7.558;2022-08-03T12:51:07;36.40;43.90
18948;DHT22;9607;51.600;7.558;2022-08-03T12:53:34;36.40;44.40
18948;DHT22;9607;51.600;7.558;2022-08-03T12:56:02;36.80;44.80
18948;DHT22;9607;51.600;7.558;2022-08-03T12:58:30;37.70;43.30
18948;DHT22;9607;51.600;7.558;2022-08-03T13:00:58;38.80;41.10
18948;DHT22;9607;51.600;7.558;2022-08-03T13:03:26;39.80;39.50
18948;DHT22;9607;51.600;7.558;2022-08-03T13:05:53;40.40;38.00
18948;DHT22;9607;51.600;7.558;2022-08-03T13:08:21;40.90;37.50
18948;DHT22;9607;51.600;7.558;2022-08-03T13:10:49;40.90;36.60
18948;DHT22;9607;51.600;7.558;2022-08-03T13:13:16;40.40;36.90
18948;DHT22;9607;51.600;7.558;2022-08-03T13:15:45;39.20;37.80
18948;DHT22;9607;51.600;7.558;2022-08-03T13:18:14;38.10;39.10
18948;DHT22;9607;51.600;7.558;2022-08-03T13:20:43;37.20;40.60
18948;DHT22;9607;51.600;7.558;2022-08-03T13:23:10;36.40;41.80
18948;DHT22;9607;51.600;7.558;2022-08-03T13:25:36;35.70;42.90
18948;DHT22;9607;51.600;7.558;2022-08-03T13:28:03;35.20;44.40
18948;DHT22;9607;51.600;7.558;2022-08-03T13:30:30;34.60;45.00
18948;DHT22;9607;51.600;7.558;2022-08-03T13:32:57;34.20;45.70
18948;DHT22;9607;51.600;7.558;2022-08-03T13:35:25;33.90;46.20
18948;DHT22;9607;51.600;7.558;2022-08-03T13:37:53;33.60;47.00
18948;DHT22;9607;51.600;7.558;2022-08-03T13:40:20;33.40;47.50
18948;DHT22;9607;51.600;7.558;2022-08-03T13:42:47;33.20;48.40
18948;DHT22;9607;51.600;7.558;2022-08-03T13:45:14;33.10;48.40
18948;DHT22;9607;51.600;7.558;2022-08-03T13:47:41;33.00;49.10
18948;DHT22;9607;51.600;7.558;2022-08-03T13:50:08;32.90;48.30
18948;DHT22;9607;51.600;7.558;2022-08-03T13:52:35;32.90;48.80
18948;DHT22;9607;51.600;7.558;2022-08-03T13:55:05;32.80;48.50
18948;DHT22;9607;51.600;7.558;2022-08-03T13:57:32;32.80;49.10
18948;DHT22;9607;51.600;7.558;2022-08-03T13:59:59;32.90;49.70
18948;DHT22;9607;51.600;7.558;2022-08-03T14:02:26;33.00;48.90
18948;DHT22;9607;51.600;7.558;2022-08-03T14:04:53;33.00;48.10
18948;DHT22;9607;51.600;7.558;2022-08-03T14:07:20;33.00;48.30
18948;DHT22;9607;51.600;7.558;2022-08-03T14:09:48;33.00;48.50
18948;DHT22;9607;51.600;7.558;2022-08-03T14:12:16;32.90;48.90
18948;DHT22;9607;51.600;7.558;2022-08-03T14:14:43;32.90;48.30
18948;DHT22;9607;51.600;7.558;2022-08-03T14:17:10;32.90;49.10
18948;DHT22;9607;51.600;7.558;2022-08-03T14:19:37;33.00;48.80
18948;DHT22;9607;51.600;7.558;2022-08-03T14:22:04;33.00;48.30
18948;DHT22;9607;51.600;7.558;2022-08-03T14:24:31;33.10;48.10
18948;DHT22;9607;51.600;7.558;2022-08-03T14:26:57;33.10;48.60
18948;DHT22;9607;51.600;7.558;2022-08-03T14:29:26;33.20;48.20
18948;DHT22;9607;51.600;7.558;2022-08-03T14:31:53;33.30;47.70
18948;DHT22;9607;51.600;7.558;2022-08-03T14:34:20;33.40;47.30
18948;DHT22;9607;51.600;7.558;2022-08-03T14:36:47;33.50;48.00
18948;DHT22;9607;51.600;7.558;2022-08-03T14:39:14;33.70;46.80
18948;DHT22;9607;51.600;7.558;2022-08-03T14:41:41;34.00;46.90
18948;DHT22;9607;51.600;7.558;2022-08-03T14:44:08;34.40;46.40
18948;DHT22;9607;51.600;7.558;2022-08-03T14:46:36;34.80;45.80
18948;DHT22;9607;51.600;7.558;2022-08-03T14:49:03;35.30;45.80
18948;DHT22;9607;51.600;7.558;2022-08-03T14:51:31;35.80;44.20
18948;DHT22;9607;51.600;7.558;2022-08-03T14:53:58;36.10;43.20
18948;DHT22;9607;51.600;7.558;2022-08-03T14:56:25;36.40;43.00
18948;DHT22;9607;51.600;7.558;2022-08-03T14:58:52;36.50;42.50
18948;DHT22;9607;51.600;7.558;2022-08-03T15:01:19;36.60;43.60
18948;DHT22;9607;51.600;7.558;2022-08-03T15:03:47;36.80;43.50
18948;DHT22;9607;51.600;7.558;2022-08-03T15:06:14;36.90;42.30
18948;DHT22;9607;51.600;7.558;2022-08-03T15:08:40;37.20;42.80
18948;DHT22;9607;51.600;7.558;2022-08-03T15:11:07;37.80;41.80
18948;DHT22;9607;51.600;7.558;2022-08-03T15:13:34;38.50;40.80
18948;DHT22;9607;51.600;7.558;2022-08-03T15:16:01;38.90;40.80
18948;DHT22;9607;51.600;7.558;2022-08-03T15:18:29;39.10;39.10
18948;DHT22;9607;51.600;7.558;2022-08-03T15:20:57;38.90;38.20
18948;DHT22;9607;51.600;7.558;2022-08-03T15:23:24;38.30;38.40
18948;DHT22;9607;51.600;7.558;2022-08-03T15:25:51;37.80;39.60
18948;DHT22;9607;51.600;7.558;2022-08-03T15:28:18;37.60;40.90
18948;DHT22;9607;51.600;7.558;2022-08-03T15:30:46;38.50;40.30
18948;DHT22;9607;51.600;7.558;2022-08-03T15:33:12;39.80;39.50
18948;DHT22;9607;51.600;7.558;2022-08-03T15:35:39;41.50;37.70
18948;DHT22;9607;51.600;7.558;2022-08-03T15:38:08;43.50;35.90
18948;DHT22;9607;51.600;7.558;2022-08-03T15:40:34;44.60;33.00
18948;DHT22;9607;51.600;7.558;2022-08-03T15:43:01;45.20;31.80
18948;DHT22;9607;51.600;7.558;2022-08-03T15:45:28;45.60;31.80
18948;DHT22;9607;51.600;7.558;2022-08-03T15:47:55;46.00;31.00
18948;DHT22;9607;51.600;7.558;2022-08-03T15:50:22;46.00;30.70
18948;DHT22;9607;51.600;7.558;2022-08-03T15:52:49;45.70;30.20
18948;DHT22;9607;51.600;7.558;2022-08-03T15:55:18;44.90;30.10
18948;DHT22;9607;51.600;7.558;2022-08-03T15:57:45;43.40;31.20
18948;DHT22;9607;51.600;7.558;2022-08-03T16:00:12;42.20;32.50